Westbrook, MN (56183)

8:34 PM CDT on July 23, 2016 (GMT -0500)
300th st | | Change Station

Elev 1457 ft 44.05 °N, 95.44 °W | Updated 8 minutes ago

Mostly Cloudy
Mostly Cloudy
83.6 °F
Feels Like 95 °F
N
5.1
Wind Variable Wind from SSE

Today
High -- | Low -- °F
--% Chance of Precip.
Yesterday
High -- | Low -- °F
Precip. -- in
Pressure 29.76 in
Visibility 10.0 miles
Clouds Scattered Clouds 2700 ft
Scattered Clouds 3400 ft
Mostly Cloudy 4200 ft
Heat Index 95 °F
Dew Point 79 °F
Humidity 85%
Rainfall 0.13 in
Snow Depth Not available.
6:00 AM 8:55 PM
Waning Gibbous, 81% visible
METAR KTKC 240114Z AUTO 16004KT 10SM SCT027 SCT034 BKN042 30/27 A2976 RMK AO2 T02960267
Pressure 29.76 in
Visibility 10.0 miles
Clouds Scattered Clouds 2700 ft
Scattered Clouds 3400 ft
Mostly Cloudy 4200 ft
Heat Index 95 °F
Dew Point 79 °F
Humidity 85%
Rainfall 0.13 in
Snow Depth Not available.
6:00 AM 8:55 PM
Waning Gibbous, 81% visible
METAR KTKC 240114Z AUTO 16004KT 10SM SCT027 SCT034 BKN042 30/27 A2976 RMK AO2 T02960267

10-Day Weather Forecast

Almanac

Astronomy

Jul. 23, 2016 Rise Set
Actual Time
Civil Twilight
Nautical Twilight
Astronomical Twilight
Moon
Length of Visible Light
Length of Day
Tomorrow will be .
, % of the Moon is Illuminated

Today's Extremes

State Highs State Lows

Community

WunderPhotos

Upload Photos

1,926,994 photos uploaded!

WunderBlog® & News

Nearby

Air Quality

  Air Quality AQ Index Pollutant
Not available.

Snow Depth

Station Depth Elevation

Earthquake Activity

City Distance Mag. Time & Date
Minimum magnitude displayed is 2.5.

Coastal Water Temperatures

Place Temperature

Stations

Nearby Weather Stations

Station Location Temp. Windchill Dew Point Humidity Wind Precip. Elev Updated Type
                   

Watches & Warnings

There are currently no watches in effect.